This is the latest recevied weather packets stored in our database for station/object EA4BHK-10. If no packets are shown the sender has not sent any weather packets the latest 10 day(s).
| Time | Temp. | Humidity | Pressure | Rain* | Wind** | Luminosity | Snow |
|---|---|---|---|---|---|---|---|
| 1787745246 | 28.33° C | 19% | 1010 hPa | - | - | - | - |
| 1787742527 | 27.78° C | 25% | 1010.9 hPa | - | - | - | - |
| 1787741627 | 27.22° C | 27% | 1010.9 hPa | - | - | - | - |
| 1787740716 | 26.67° C | 28% | 1011.3 hPa | - | - | - | - |
| 1787739812 | 26.11° C | 31% | 1011.7 hPa | - | - | - | - |
| 1787738904 | 25.56° C | 31% | 1012.2 hPa | - | - | - | - |
| 1787738000 | 25° C | 32% | 1012.2 hPa | - | - | - | - |
| 1787737097 | 25° C | 35% | 1012.4 hPa | - | - | - | - |
| 1787736187 | 24.44° C | 39% | 1012.5 hPa | - | - | - | - |
| 1787735287 | 22.78° C | 42% | 1012.9 hPa | - | - | - | - |
| 1787734383 | 21.67° C | 44% | 1013.4 hPa | - | - | - | - |
| 1787733478 | 21.67° C | 44% | 1013.2 hPa | - | - | - | - |
| 1787732563 | 21.11° C | 47% | 1013.3 hPa | - | - | - | - |
| 1787731663 | 21.11° C | 49% | 1013.2 hPa | - | - | - | - |
| 1787730758 | 19.44° C | 54% | 1014.1 hPa | - | - | - | - |
| 1787729853 | 17.22° C | 57% | 1014.8 hPa | - | - | - | - |
| 1787728945 | 16.11° C | 59% | 1015.5 hPa | - | - | - | - |
| 1787728045 | 15.56° C | 59% | 1015.8 hPa | - | - | - | - |
| 1787727145 | 15.56° C | 58% | 1015.7 hPa | - | - | - | - |
| 1787726245 | 15° C | 58% | 1015.7 hPa | - | - | - | - |
| 1787725345 | 15° C | 58% | 1015.6 hPa | - | - | - | - |
| 1787724445 | 14.44° C | 57% | 1015.4 hPa | - | - | - | - |
| 1787723545 | 14.44° C | 56% | 1015.6 hPa | - | - | - | - |
| 1787722645 | 14.44° C | 56% | 1015.4 hPa | - | - | - | - |
| 1787721745 | 13.89° C | 57% | 1015.3 hPa | - | - | - | - |
* Rain since midnight (hover to see other rain measurements)
** Current wind speed in m/s (hover to see current wind gust speed)